createdAt,value
2023-03-08T00:01:24.829Z,52.69
2023-03-08T00:03:56.217Z,52.58
2023-03-08T00:06:24.143Z,52.04
2023-03-08T00:08:50.803Z,52.79
2023-03-08T00:11:18.165Z,52.90
2023-03-08T00:13:44.863Z,53.02
2023-03-08T00:16:13.750Z,52.83
2023-03-08T00:18:40.844Z,52.84
2023-03-08T00:21:18.606Z,52.41
2023-03-08T00:23:45.935Z,52.58
2023-03-08T00:26:12.959Z,52.74
2023-03-08T00:28:40.461Z,53.06
2023-03-08T00:31:10.504Z,53.09
2023-03-08T00:33:37.163Z,52.88
2023-03-08T00:36:18.200Z,53.09
2023-03-08T00:38:45.082Z,53.00
2023-03-08T00:41:11.650Z,53.13
2023-03-08T00:43:38.360Z,53.25
2023-03-08T00:46:06.083Z,53.38
2023-03-08T00:48:32.605Z,53.27
2023-03-08T00:51:00.052Z,53.73
2023-03-08T00:53:26.641Z,53.43
2023-03-08T00:55:56.033Z,53.80
2023-03-08T00:58:24.610Z,54.08
2023-03-08T01:00:51.593Z,54.56
2023-03-08T01:03:19.731Z,54.45
2023-03-08T01:05:49.393Z,54.65
2023-03-08T01:08:17.406Z,54.72
2023-03-08T01:10:52.661Z,54.32
2023-03-08T01:13:20.565Z,54.81
2023-03-08T01:15:47.598Z,54.55
2023-03-08T01:18:14.647Z,54.67
2023-03-08T01:20:41.229Z,55.19
2023-03-08T01:23:08.294Z,54.84
2023-03-08T01:25:34.865Z,54.76
2023-03-08T01:28:01.618Z,55.13
2023-03-08T01:30:28.197Z,54.89
2023-03-08T01:32:54.807Z,55.28
2023-03-08T01:35:21.346Z,55.86
2023-03-08T01:37:53.599Z,56.35
2023-03-08T01:40:20.593Z,58.71
2023-03-08T01:42:47.276Z,59.41
2023-03-08T01:45:51.175Z,60.10
2023-03-08T01:48:19.067Z,62.27
2023-03-08T01:50:46.428Z,63.37
2023-03-08T01:53:13.525Z,64.79
2023-03-08T01:55:40.402Z,64.97
2023-03-08T01:58:07.015Z,65.26
2023-03-08T02:00:33.750Z,67.26
2023-03-08T02:03:04.166Z,67.74
2023-03-08T02:05:30.999Z,68.61
2023-03-08T02:07:57.551Z,69.37
2023-03-08T02:10:24.179Z,69.97
2023-03-08T02:12:51.142Z,70.01
2023-03-08T02:15:20.320Z,70.12
2023-03-08T02:17:47.821Z,70.54
2023-03-08T02:20:20.709Z,70.55
2023-03-08T02:22:47.724Z,70.73
2023-03-08T02:25:24.047Z,70.49
2023-03-08T02:27:52.688Z,70.88
2023-03-08T02:30:25.902Z,71.02
2023-03-08T02:32:52.490Z,71.38
2023-03-08T02:35:19.113Z,71.21
2023-03-08T02:37:45.645Z,71.29
2023-03-08T02:40:12.733Z,71.30
2023-03-08T02:42:39.260Z,72.16
2023-03-08T02:45:06.593Z,71.85
2023-03-08T02:47:33.482Z,72.32
2023-03-08T02:50:00.109Z,72.02
2023-03-08T02:52:26.855Z,72.38
2023-03-08T02:54:53.973Z,72.35
2023-03-08T02:57:21.111Z,72.44
2023-03-08T02:59:47.642Z,72.60
2023-03-08T03:02:14.238Z,72.97
2023-03-08T03:04:40.870Z,73.04
2023-03-08T03:07:07.417Z,73.31
2023-03-08T03:09:35.769Z,73.15
2023-03-08T03:12:02.595Z,73.00
2023-03-08T03:14:29.202Z,73.05
2023-03-08T03:16:55.724Z,73.01
2023-03-08T03:19:22.299Z,72.88
2023-03-08T03:21:48.799Z,72.61
2023-03-08T03:24:15.439Z,73.14
2023-03-08T03:26:42.019Z,73.04
2023-03-08T03:29:08.557Z,72.81
2023-03-08T03:31:35.137Z,72.97
2023-03-08T03:34:01.741Z,73.40
2023-03-08T03:36:28.461Z,73.40
2023-03-08T03:38:55.486Z,72.85
2023-03-08T03:41:23.550Z,73.64
2023-03-08T03:43:50.534Z,73.59
2023-03-08T03:46:19.332Z,73.67
2023-03-08T03:48:46.214Z,73.52
2023-03-08T03:51:20.890Z,73.88
2023-03-08T03:53:48.523Z,74.04
2023-03-08T03:56:19.188Z,74.16
2023-03-08T03:58:46.718Z,74.10
2023-03-08T04:01:30.929Z,74.09
2023-03-08T04:03:58.218Z,74.14
2023-03-08T04:06:27.799Z,74.48
2023-03-08T04:08:57.051Z,74.42
2023-03-08T04:11:26.424Z,74.72
2023-03-08T04:13:53.027Z,74.94
2023-03-08T04:16:29.429Z,74.57
2023-03-08T04:18:58.758Z,74.82
2023-03-08T04:21:25.637Z,74.86
2023-03-08T04:23:52.883Z,75.23
2023-03-08T04:26:20.023Z,75.00
2023-03-08T04:28:46.688Z,75.51
2023-03-08T04:31:16.295Z,75.13
2023-03-08T04:33:43.818Z,75.01
2023-03-08T04:36:10.462Z,74.74
2023-03-08T04:38:37.106Z,73.88
2023-03-08T04:41:13.102Z,73.26
2023-03-08T04:43:53.975Z,72.78
2023-03-08T04:46:24.800Z,72.02
2023-03-08T04:48:54.094Z,71.78
2023-03-08T04:51:21.186Z,71.92
2023-03-08T04:53:47.861Z,71.96
2023-03-08T04:56:16.521Z,71.51
2023-03-08T04:58:43.902Z,70.53
2023-03-08T05:01:17.855Z,70.18
2023-03-08T05:03:45.089Z,69.89
2023-03-08T05:06:14.222Z,69.68
2023-03-08T05:08:41.085Z,69.21
2023-03-08T05:11:07.599Z,69.14
2023-03-08T05:13:36.911Z,69.33
2023-03-08T05:16:05.471Z,69.50
2023-03-08T05:18:32.293Z,69.63
2023-03-08T05:21:01.480Z,69.46
2023-03-08T05:23:29.087Z,69.84
2023-03-08T05:25:57.408Z,70.35
2023-03-08T05:28:25.982Z,70.46
2023-03-08T05:31:07.057Z,70.90
2023-03-08T05:33:35.511Z,70.84
2023-03-08T05:36:03.009Z,71.59
2023-03-08T05:38:29.686Z,71.88
2023-03-08T05:41:04.275Z,71.90
2023-03-08T05:43:31.225Z,72.79
2023-03-08T05:46:10.637Z,72.62
2023-03-08T05:48:37.860Z,72.73
2023-03-08T05:51:06.607Z,72.88
2023-03-08T05:53:33.262Z,72.83
2023-03-08T05:56:15.059Z,73.10
2023-03-08T05:58:43.714Z,73.42
2023-03-08T06:01:25.309Z,75.55
2023-03-08T06:03:54.680Z,75.35
2023-03-08T06:06:22.937Z,74.21
2023-03-08T06:08:49.697Z,71.25
2023-03-08T06:11:16.799Z,69.70
2023-03-08T06:13:43.505Z,69.20
2023-03-08T06:16:10.865Z,69.59
2023-03-08T06:18:39.497Z,70.55
2023-03-08T06:21:15.029Z,70.87
2023-03-08T06:23:42.336Z,71.82
2023-03-08T06:26:09.700Z,72.38
2023-03-08T06:28:37.769Z,73.00
2023-03-08T06:31:04.558Z,73.05
2023-03-08T06:33:33.561Z,73.48
2023-03-08T06:36:00.196Z,74.17
2023-03-08T06:38:29.896Z,74.62
2023-03-08T06:40:57.302Z,75.48
2023-03-08T06:43:24.633Z,75.84
2023-03-08T06:45:51.287Z,75.73
2023-03-08T06:48:18.087Z,76.29
2023-03-08T06:50:45.343Z,76.63
2023-03-08T06:53:12.732Z,77.33
2023-03-08T06:55:41.170Z,77.27
2023-03-08T06:58:08.550Z,77.73
2023-03-08T07:00:35.236Z,77.89
2023-03-08T07:03:02.020Z,78.46
2023-03-08T07:05:28.578Z,78.69
2023-03-08T07:07:55.100Z,78.96
2023-03-08T07:10:22.218Z,78.88
2023-03-08T07:12:51.339Z,79.06
2023-03-08T07:15:20.152Z,79.14
2023-03-08T07:17:48.238Z,79.31
2023-03-08T07:20:17.380Z,79.30
2023-03-08T07:22:44.972Z,79.17
2023-03-08T07:25:13.198Z,79.56
2023-03-08T07:27:39.777Z,79.34
2023-03-08T07:30:09.714Z,79.57
2023-03-08T07:32:39.902Z,79.96
2023-03-08T07:35:08.273Z,79.64
2023-03-08T07:37:34.900Z,79.69
2023-03-08T07:40:01.456Z,79.91
2023-03-08T07:42:28.090Z,79.67
2023-03-08T07:44:54.613Z,79.96
2023-03-08T07:47:21.836Z,80.00
2023-03-08T07:49:48.449Z,79.86
2023-03-08T07:52:15.227Z,80.06
2023-03-08T07:54:41.984Z,80.02
2023-03-08T08:02:37.838Z,80.26
2023-03-08T08:05:05.256Z,80.31
2023-03-08T08:07:31.812Z,80.30
2023-03-08T08:09:58.362Z,80.22
2023-03-08T08:12:24.922Z,80.64
2023-03-08T08:14:52.978Z,80.66
2023-03-08T08:17:20.223Z,80.71
2023-03-08T08:19:47.140Z,80.85
2023-03-08T08:22:14.743Z,80.52
2023-03-08T08:24:41.318Z,80.88
2023-03-08T08:27:07.850Z,80.60
2023-03-08T08:29:34.413Z,80.73
2023-03-08T08:32:00.952Z,80.80
2023-03-08T08:34:27.491Z,80.74
2023-03-08T08:36:54.019Z,80.54
2023-03-08T08:39:20.594Z,80.63
2023-03-08T08:41:49.320Z,80.57
2023-03-08T08:44:15.943Z,80.58
2023-03-08T08:46:42.505Z,80.65
2023-03-08T08:49:10.129Z,80.79
2023-03-08T08:51:36.777Z,80.65
2023-03-08T08:54:03.679Z,79.96
2023-03-08T08:56:30.517Z,80.21
2023-03-08T08:58:59.565Z,80.21
2023-03-08T09:01:30.106Z,80.03
2023-03-08T09:03:56.788Z,79.90
2023-03-08T09:06:25.367Z,79.69
2023-03-08T09:08:54.832Z,79.69
2023-03-08T09:11:22.328Z,79.50
2023-03-08T09:13:49.080Z,79.40
2023-03-08T09:16:24.691Z,79.36
2023-03-08T09:18:52.278Z,79.23
2023-03-08T09:21:19.457Z,79.61
2023-03-08T09:23:46.212Z,78.75
2023-03-08T09:26:12.868Z,79.32
2023-03-08T09:28:40.017Z,79.17
2023-03-08T09:31:12.168Z,79.07
2023-03-08T09:33:43.714Z,78.79
2023-03-08T09:36:14.275Z,79.32
2023-03-08T09:38:41.299Z,79.01
2023-03-08T09:41:15.848Z,79.31
2023-03-08T09:43:55.847Z,78.88
2023-03-08T09:46:36.206Z,79.22
2023-03-08T09:49:06.968Z,79.84
2023-03-08T09:51:38.410Z,79.86
2023-03-08T09:54:13.927Z,79.76
2023-03-08T09:56:50.781Z,80.39
2023-03-08T09:59:24.606Z,80.57
2023-03-08T10:01:56.180Z,82.34
2023-03-08T10:04:25.937Z,83.08
2023-03-08T10:07:18.374Z,84.53
2023-03-08T10:09:58.439Z,86.25
2023-03-08T10:13:02.734Z,87.10
2023-03-08T10:15:33.038Z,87.12
2023-03-08T10:18:13.703Z,88.62
2023-03-08T10:20:41.933Z,87.95
2023-03-08T10:23:20.680Z,88.69
2023-03-08T10:25:49.500Z,88.62
2023-03-08T10:28:19.302Z,88.49
2023-03-08T10:30:55.423Z,88.43
2023-03-08T10:33:26.661Z,87.97
2023-03-08T10:35:53.167Z,87.70
2023-03-08T10:38:19.751Z,87.50
2023-03-08T10:40:46.673Z,87.47
2023-03-08T10:43:40.466Z,87.78
2023-03-08T10:46:14.379Z,87.42
2023-03-08T10:48:41.165Z,86.99
2023-03-08T10:51:17.752Z,87.00
2023-03-08T10:53:58.657Z,87.06
2023-03-08T10:56:32.279Z,87.32
2023-03-08T10:58:59.674Z,87.59
2023-03-08T11:01:30.421Z,87.51
2023-03-08T11:04:03.194Z,88.01
2023-03-08T11:06:30.389Z,88.19
2023-03-08T11:09:00.024Z,88.35
2023-03-08T11:11:27.651Z,88.60
2023-03-08T11:13:55.367Z,88.22
2023-03-08T11:16:56.062Z,88.34
2023-03-08T11:19:37.842Z,88.15
2023-03-08T11:22:13.400Z,87.49
2023-03-08T11:24:39.915Z,87.36
2023-03-08T11:27:41.113Z,87.26
2023-03-08T11:30:27.291Z,86.82
2023-03-08T11:33:22.176Z,87.00
2023-03-08T11:36:13.798Z,86.52
2023-03-08T11:38:41.991Z,86.72
2023-03-08T11:41:46.071Z,86.57
2023-03-08T11:44:48.179Z,86.12
2023-03-08T11:47:34.158Z,86.51
2023-03-08T11:50:28.793Z,86.80
2023-03-08T11:52:58.460Z,86.63
2023-03-08T11:55:42.946Z,87.01
2023-03-08T11:58:13.599Z,86.92
2023-03-08T12:00:42.927Z,87.18
2023-03-08T12:03:13.189Z,87.60
2023-03-08T12:05:46.231Z,87.75
2023-03-08T12:08:25.414Z,87.27
2023-03-08T12:11:01.903Z,88.40
2023-03-08T12:13:42.099Z,88.15
2023-03-08T12:16:11.393Z,88.05
2023-03-08T12:18:46.737Z,88.47
2023-03-08T12:21:27.524Z,87.95
2023-03-08T12:23:57.189Z,88.62
2023-03-08T12:26:33.259Z,88.41
2023-03-08T12:29:09.908Z,88.55
2023-03-08T12:31:48.461Z,88.75
2023-03-08T12:34:26.063Z,88.35
2023-03-08T12:36:52.979Z,88.42
2023-03-08T12:39:37.852Z,88.45
2023-03-08T12:42:10.419Z,88.38
2023-03-08T12:44:38.337Z,88.53
2023-03-08T12:47:14.089Z,88.89
2023-03-08T12:49:44.586Z,88.67
2023-03-08T12:52:20.201Z,88.88
2023-03-08T12:55:09.026Z,88.39
2023-03-08T12:57:56.235Z,88.59
2023-03-08T13:00:35.575Z,89.40
2023-03-08T13:03:13.959Z,89.36
2023-03-08T13:05:45.318Z,89.02
2023-03-08T13:08:14.711Z,89.17
2023-03-08T13:10:57.508Z,89.21
2023-03-08T13:13:38.087Z,88.96
2023-03-08T13:16:08.334Z,88.25
2023-03-08T13:18:36.991Z,88.58
2023-03-08T13:21:16.433Z,88.47
2023-03-08T13:23:52.943Z,87.62
2023-03-08T13:26:35.201Z,87.95
2023-03-08T13:29:14.721Z,87.21
2023-03-08T13:31:43.395Z,86.66
2023-03-08T13:34:33.220Z,86.07
2023-03-08T13:36:59.857Z,86.89
2023-03-08T13:39:30.187Z,86.50
2023-03-08T13:42:11.511Z,85.75
2023-03-08T13:44:38.365Z,85.79
2023-03-08T13:47:18.718Z,84.26
2023-03-08T13:49:51.615Z,84.13
2023-03-08T13:52:31.017Z,84.28
2023-03-08T13:55:03.483Z,84.25
2023-03-08T13:57:36.638Z,84.08
2023-03-08T14:00:21.985Z,84.15
2023-03-08T14:02:48.758Z,84.18
2023-03-08T14:05:26.882Z,83.60
2023-03-08T14:07:57.352Z,84.37
2023-03-08T14:10:35.180Z,84.61
2023-03-08T14:13:03.495Z,84.49
2023-03-08T14:15:33.450Z,85.28
2023-03-08T14:18:00.780Z,85.82
2023-03-08T14:20:27.647Z,85.92
2023-03-08T14:22:55.136Z,86.33
2023-03-08T14:25:26.307Z,86.00
2023-03-08T14:27:53.860Z,86.32
2023-03-08T14:30:26.717Z,86.61
2023-03-08T14:33:07.169Z,85.73
2023-03-08T14:35:40.202Z,85.00
2023-03-08T14:38:21.014Z,85.09
2023-03-08T14:40:51.847Z,84.67
2023-03-08T14:43:21.817Z,84.01
2023-03-08T14:46:06.332Z,84.00
2023-03-08T14:48:37.316Z,83.91
2023-03-08T14:51:19.893Z,84.68
2023-03-08T14:54:01.783Z,84.08
2023-03-08T14:56:30.529Z,84.44
2023-03-08T14:59:00.813Z,84.20
2023-03-08T15:01:32.985Z,84.32
2023-03-08T15:03:59.833Z,84.41
2023-03-08T15:06:33.123Z,84.71
2023-03-08T15:09:00.959Z,84.44
2023-03-08T15:11:31.472Z,84.20
2023-03-08T15:14:01.802Z,84.79
2023-03-08T15:16:28.545Z,84.90
2023-03-08T15:18:55.383Z,85.00
2023-03-08T15:21:27.185Z,84.50
2023-03-08T15:23:54.759Z,85.39
2023-03-08T15:26:26.750Z,85.42
2023-03-08T15:28:53.653Z,85.69
2023-03-08T15:31:20.302Z,84.83
2023-03-08T15:33:46.908Z,85.41
2023-03-08T15:36:16.865Z,85.51
2023-03-08T15:38:43.982Z,85.07
2023-03-08T15:41:14.496Z,85.41
2023-03-08T15:43:41.349Z,84.77
2023-03-08T15:46:12.356Z,85.37
2023-03-08T15:48:39.041Z,85.13
2023-03-08T15:51:05.817Z,85.08
2023-03-08T15:53:35.776Z,85.68
2023-03-08T15:56:03.188Z,85.61
2023-03-08T15:58:29.724Z,85.50
2023-03-08T16:00:56.310Z,86.43
2023-03-08T16:03:30.895Z,85.41
2023-03-08T16:05:58.714Z,85.77
2023-03-08T16:08:25.893Z,86.02
2023-03-08T16:10:52.603Z,86.49
2023-03-08T16:13:21.890Z,85.81
2023-03-08T16:15:49.395Z,86.33
2023-03-08T16:18:16.097Z,86.68
2023-03-08T16:20:42.744Z,86.95
2023-03-08T16:23:09.313Z,87.08
2023-03-08T16:25:35.841Z,87.12
2023-03-08T16:28:02.437Z,87.59
2023-03-08T16:30:29.777Z,87.77
2023-03-08T16:32:56.355Z,87.96
2023-03-08T16:35:22.953Z,88.07
2023-03-08T16:40:34.129Z,88.56
2023-03-08T16:43:00.687Z,88.83
2023-03-08T16:45:27.215Z,90.00
2023-03-08T16:47:53.727Z,90.06
2023-03-08T16:50:20.252Z,90.49
2023-03-08T16:52:46.876Z,90.09
2023-03-08T16:55:13.562Z,89.86
2023-03-08T16:57:40.343Z,89.70
2023-03-08T17:00:10.406Z,90.50
2023-03-08T17:02:36.991Z,89.64
2023-03-08T17:05:04.925Z,89.92
2023-03-08T17:07:31.856Z,90.53
2023-03-08T17:09:58.590Z,89.66
2023-03-08T17:12:25.168Z,89.13
2023-03-08T17:14:51.727Z,89.18
2023-03-08T17:17:18.251Z,88.80
2023-03-08T17:19:46.315Z,88.70
2023-03-08T17:22:12.912Z,89.19
2023-03-08T17:24:39.583Z,88.76
2023-03-08T17:27:06.199Z,88.93
2023-03-08T17:29:32.740Z,89.43
2023-03-08T17:31:59.259Z,89.40
2023-03-08T17:34:25.898Z,89.35
2023-03-08T17:36:52.588Z,89.92
2023-03-08T17:39:19.934Z,89.94
2023-03-08T17:41:46.553Z,89.51
2023-03-08T17:44:14.115Z,89.45
2023-03-08T17:46:40.736Z,89.61
2023-03-08T17:49:07.342Z,90.04
2023-03-08T17:51:34.248Z,89.66
2023-03-08T17:54:02.236Z,90.17
2023-03-08T17:56:30.459Z,90.07
2023-03-08T17:59:01.206Z,89.78
2023-03-08T18:01:30.709Z,90.13
2023-03-08T18:03:58.300Z,90.55
2023-03-08T18:06:27.466Z,90.53
2023-03-08T18:08:54.436Z,90.79
2023-03-08T18:11:21.155Z,90.74
2023-03-08T18:13:48.787Z,90.64
2023-03-08T18:16:15.520Z,90.88
2023-03-08T18:18:42.217Z,89.83
2023-03-08T18:21:13.897Z,89.81
2023-03-08T18:23:42.689Z,88.57
2023-03-08T18:26:11.594Z,88.74
2023-03-08T18:28:38.497Z,87.47
2023-03-08T18:31:10.917Z,86.38
2023-03-08T18:33:37.671Z,86.69
2023-03-08T18:36:04.660Z,86.15
2023-03-08T18:38:31.217Z,84.14
2023-03-08T18:40:57.755Z,83.61
2023-03-08T18:43:25.419Z,84.06
2023-03-08T18:45:56.550Z,83.77
2023-03-08T18:48:24.218Z,82.34
2023-03-08T18:50:50.856Z,82.36
2023-03-08T18:53:17.736Z,83.15
2023-03-08T18:55:55.469Z,82.36
2023-03-08T18:58:22.144Z,82.66
2023-03-08T19:00:48.717Z,83.01
2023-03-08T19:03:15.361Z,83.69
2023-03-08T19:05:41.891Z,84.29
2023-03-08T19:08:08.508Z,83.45
2023-03-08T19:10:35.122Z,84.61
2023-03-08T19:13:01.766Z,84.31
2023-03-08T19:15:28.260Z,84.37
2023-03-08T19:17:56.371Z,84.22
2023-03-08T19:20:22.857Z,84.47
2023-03-08T19:22:49.503Z,84.54
2023-03-08T19:25:16.362Z,84.59
2023-03-08T19:27:42.893Z,85.17
2023-03-08T19:30:10.136Z,85.42
2023-03-08T19:32:36.908Z,85.30
2023-03-08T19:35:04.453Z,85.70
2023-03-08T19:37:31.486Z,85.32
2023-03-08T19:39:59.723Z,85.77
2023-03-08T19:42:27.501Z,85.47
2023-03-08T19:44:54.056Z,85.57
2023-03-08T19:47:20.875Z,85.80
2023-03-08T19:49:47.408Z,86.17
2023-03-08T19:52:14.186Z,86.44
2023-03-08T19:54:42.066Z,87.28
2023-03-08T19:57:10.302Z,86.96
2023-03-08T19:59:37.551Z,87.40
2023-03-08T20:02:05.963Z,87.58
2023-03-08T20:04:32.599Z,87.81
2023-03-08T20:07:01.135Z,87.65
2023-03-08T20:09:27.742Z,88.06
2023-03-08T20:11:58.459Z,88.72
2023-03-08T20:14:27.226Z,88.89
2023-03-08T20:16:54.731Z,88.39
2023-03-08T20:19:21.443Z,88.61
2023-03-08T20:21:48.213Z,87.94
2023-03-08T20:24:18.023Z,88.17
2023-03-08T20:26:44.870Z,88.28
2023-03-08T20:29:11.389Z,88.38
2023-03-08T20:31:37.907Z,88.77
2023-03-08T20:34:04.570Z,88.18
2023-03-08T20:36:31.158Z,88.74
2023-03-08T20:38:58.886Z,88.44
2023-03-08T20:41:25.755Z,87.61
2023-03-08T20:43:55.555Z,87.65
2023-03-08T20:46:26.027Z,86.41
2023-03-08T20:48:52.895Z,85.69
2023-03-08T20:51:21.393Z,85.35
2023-03-08T20:53:50.550Z,84.49
2023-03-08T20:56:19.747Z,84.96
2023-03-08T20:58:46.745Z,84.82
2023-03-08T21:01:19.891Z,85.25
2023-03-08T21:03:47.276Z,83.89
2023-03-08T21:06:19.832Z,84.27
2023-03-08T21:08:47.578Z,84.50
2023-03-08T21:11:14.983Z,84.00
2023-03-08T21:13:41.714Z,84.14
2023-03-08T21:16:12.667Z,83.94
2023-03-08T21:18:39.295Z,83.82
2023-03-08T21:21:06.089Z,84.17
2023-03-08T21:23:32.648Z,84.36
2023-03-08T21:26:01.147Z,84.47
2023-03-08T21:28:27.982Z,84.13
2023-03-08T21:30:54.757Z,84.87
2023-03-08T21:33:21.324Z,84.68
2023-03-08T21:35:47.914Z,85.07
2023-03-08T21:38:14.434Z,84.92
2023-03-08T21:40:42.714Z,85.30
2023-03-08T21:43:09.647Z,85.07
2023-03-08T21:45:41.811Z,85.83
2023-03-08T21:48:09.310Z,85.50
2023-03-08T21:50:39.685Z,85.75
2023-03-08T21:53:07.642Z,86.35
2023-03-08T21:56:09.698Z,86.10
2023-03-08T21:58:37.094Z,86.13
2023-03-08T22:01:05.069Z,86.43
2023-03-08T22:03:33.451Z,86.55
2023-03-08T22:06:00.770Z,86.71
2023-03-08T22:08:27.374Z,86.88
2023-03-08T22:10:54.133Z,86.36
2023-03-08T22:13:21.152Z,87.44
2023-03-08T22:15:47.732Z,87.74
2023-03-08T22:18:14.309Z,87.80
2023-03-08T22:20:40.897Z,87.86
2023-03-08T22:23:07.439Z,87.33
2023-03-08T22:25:34.049Z,86.38
2023-03-08T22:28:00.620Z,85.31
2023-03-08T22:30:27.377Z,83.70
2023-03-08T22:32:55.049Z,84.45
2023-03-08T22:35:22.344Z,85.18
2023-03-08T22:37:49.404Z,85.41
2023-03-08T22:40:18.885Z,85.58
2023-03-08T22:42:46.455Z,87.05
2023-03-08T22:45:13.191Z,87.21
2023-03-08T22:47:40.000Z,86.40
2023-03-08T22:50:07.273Z,86.85
2023-03-08T22:52:33.896Z,86.73
2023-03-08T22:55:00.568Z,86.75
2023-03-08T22:57:27.142Z,86.20
2023-03-08T22:59:58.049Z,86.59
2023-03-08T23:02:25.142Z,86.23
2023-03-08T23:04:51.732Z,86.09
2023-03-08T23:07:18.319Z,84.74
2023-03-08T23:09:44.900Z,84.93
2023-03-08T23:12:11.487Z,83.99
2023-03-08T23:14:38.054Z,83.53
2023-03-08T23:17:04.603Z,83.20
2023-03-08T23:19:31.141Z,83.68
2023-03-08T23:21:58.083Z,83.39
2023-03-08T23:24:24.618Z,84.12
2023-03-08T23:26:51.303Z,83.70
2023-03-08T23:29:17.836Z,83.84
2023-03-08T23:31:46.291Z,83.75
2023-03-08T23:34:12.927Z,83.57
2023-03-08T23:36:39.546Z,84.21
2023-03-08T23:39:06.171Z,84.34
2023-03-08T23:41:32.744Z,83.85
2023-03-08T23:44:01.193Z,83.33
2023-03-08T23:46:28.736Z,83.73
2023-03-08T23:48:57.203Z,83.68
2023-03-08T23:51:26.335Z,84.01
2023-03-08T23:53:55.194Z,83.57
2023-03-08T23:56:26.820Z,83.80
2023-03-08T23:58:58.508Z,84.58
